sensor_id;sensor_type;location;lat;lon;timestamp;P1;durP1;ratioP1;P2;durP2;ratioP2
44046;SDS011;29713;-33.888;151.150;2023-04-10T00:00:00;0.88;;;0.30;;
44046;SDS011;29713;-33.888;151.150;2023-04-10T00:02:28;2.30;;;0.60;;
44046;SDS011;29713;-33.888;151.150;2023-04-10T00:04:55;1.50;;;0.50;;
44046;SDS011;29713;-33.888;151.150;2023-04-10T00:07:23;1.10;;;0.40;;
44046;SDS011;29713;-33.888;151.150;2023-04-10T00:09:50;1.20;;;0.43;;
44046;SDS011;29713;-33.888;151.150;2023-04-10T00:12:18;2.60;;;0.40;;
44046;SDS011;29713;-33.888;151.150;2023-04-10T00:14:45;2.63;;;0.47;;
44046;SDS011;29713;-33.888;151.150;2023-04-10T00:17:13;1.02;;;0.43;;
44046;SDS011;29713;-33.888;151.150;2023-04-10T00:19:40;2.05;;;0.50;;
44046;SDS011;29713;-33.888;151.150;2023-04-10T00:22:07;1.92;;;0.30;;
44046;SDS011;29713;-33.888;151.150;2023-04-10T00:24:35;1.65;;;0.45;;
44046;SDS011;29713;-33.888;151.150;2023-04-10T00:27:02;0.40;;;0.30;;
44046;SDS011;29713;-33.888;151.150;2023-04-10T00:29:29;2.10;;;0.40;;
44046;SDS011;29713;-33.888;151.150;2023-04-10T00:31:57;0.90;;;0.30;;
44046;SDS011;29713;-33.888;151.150;2023-04-10T00:34:24;1.55;;;0.60;;
44046;SDS011;29713;-33.888;151.150;2023-04-10T00:36:52;0.95;;;0.20;;
44046;SDS011;29713;-33.888;151.150;2023-04-10T00:39:19;1.65;;;0.40;;
44046;SDS011;29713;-33.888;151.150;2023-04-10T00:41:46;1.80;;;0.50;;
44046;SDS011;29713;-33.888;151.150;2023-04-10T00:44:13;0.73;;;0.35;;
44046;SDS011;29713;-33.888;151.150;2023-04-10T00:46:41;0.77;;;0.50;;
44046;SDS011;29713;-33.888;151.150;2023-04-10T00:49:08;2.42;;;0.47;;
44046;SDS011;29713;-33.888;151.150;2023-04-10T00:51:36;1.48;;;0.25;;
44046;SDS011;29713;-33.888;151.150;2023-04-10T00:54:03;1.63;;;0.40;;
44046;SDS011;29713;-33.888;151.150;2023-04-10T00:56:31;1.83;;;0.40;;
44046;SDS011;29713;-33.888;151.150;2023-04-10T00:59:00;1.98;;;0.50;;
44046;SDS011;29713;-33.888;151.150;2023-04-10T01:01:27;0.85;;;0.40;;
44046;SDS011;29713;-33.888;151.150;2023-04-10T01:03:55;1.70;;;0.55;;
44046;SDS011;29713;-33.888;151.150;2023-04-10T01:06:47;1.33;;;0.40;;
44046;SDS011;29713;-33.888;151.150;2023-04-10T01:09:31;0.65;;;0.40;;
44046;SDS011;29713;-33.888;151.150;2023-04-10T01:20:24;1.05;;;0.30;;
44046;SDS011;29713;-33.888;151.150;2023-04-10T01:25:57;0.38;;;0.30;;
44046;SDS011;29713;-33.888;151.150;2023-04-10T01:34:24;0.70;;;0.30;;
44046;SDS011;29713;-33.888;151.150;2023-04-10T01:37:31;0.30;;;0.30;;
44046;SDS011;29713;-33.888;151.150;2023-04-10T01:40:03;0.38;;;0.13;;
44046;SDS011;29713;-33.888;151.150;2023-04-10T01:42:35;0.88;;;0.40;;
44046;SDS011;29713;-33.888;151.150;2023-04-10T01:45:17;0.82;;;0.20;;
44046;SDS011;29713;-33.888;151.150;2023-04-10T01:47:47;0.38;;;0.25;;
44046;SDS011;29713;-33.888;151.150;2023-04-10T01:50:15;0.90;;;0.25;;
44046;SDS011;29713;-33.888;151.150;2023-04-10T01:52:45;1.67;;;0.50;;
44046;SDS011;29713;-33.888;151.150;2023-04-10T01:55:18;0.57;;;0.30;;
44046;SDS011;29713;-33.888;151.150;2023-04-10T01:57:47;0.32;;;0.20;;
44046;SDS011;29713;-33.888;151.150;2023-04-10T02:00:17;0.55;;;0.30;;
44046;SDS011;29713;-33.888;151.150;2023-04-10T02:02:45;0.35;;;0.28;;
44046;SDS011;29713;-33.888;151.150;2023-04-10T02:05:12;0.85;;;0.50;;
44046;SDS011;29713;-33.888;151.150;2023-04-10T02:11:12;0.60;;;0.30;;
44046;SDS011;29713;-33.888;151.150;2023-04-10T02:13:49;0.73;;;0.43;;
44046;SDS011;29713;-33.888;151.150;2023-04-10T02:16:18;0.60;;;0.35;;
44046;SDS011;29713;-33.888;151.150;2023-04-10T02:18:50;1.05;;;0.40;;
44046;SDS011;29713;-33.888;151.150;2023-04-10T02:21:17;0.63;;;0.20;;
44046;SDS011;29713;-33.888;151.150;2023-04-10T02:23:45;1.85;;;0.40;;
44046;SDS011;29713;-33.888;151.150;2023-04-10T02:26:12;1.25;;;0.40;;
44046;SDS011;29713;-33.888;151.150;2023-04-10T02:28:40;1.55;;;0.30;;
44046;SDS011;29713;-33.888;151.150;2023-04-10T02:31:07;0.70;;;0.38;;
44046;SDS011;29713;-33.888;151.150;2023-04-10T02:33:35;1.33;;;0.32;;
44046;SDS011;29713;-33.888;151.150;2023-04-10T02:36:02;1.67;;;0.40;;
44046;SDS011;29713;-33.888;151.150;2023-04-10T02:38:29;1.15;;;0.32;;
44046;SDS011;29713;-33.888;151.150;2023-04-10T02:40:57;0.55;;;0.30;;
44046;SDS011;29713;-33.888;151.150;2023-04-10T02:43:25;1.45;;;0.38;;
44046;SDS011;29713;-33.888;151.150;2023-04-10T02:45:52;0.82;;;0.25;;
44046;SDS011;29713;-33.888;151.150;2023-04-10T02:48:20;0.60;;;0.40;;
44046;SDS011;29713;-33.888;151.150;2023-04-10T02:50:47;1.60;;;0.50;;
44046;SDS011;29713;-33.888;151.150;2023-04-10T02:53:15;0.77;;;0.32;;
44046;SDS011;29713;-33.888;151.150;2023-04-10T02:55:42;0.77;;;0.30;;
44046;SDS011;29713;-33.888;151.150;2023-04-10T02:58:10;0.57;;;0.22;;
44046;SDS011;29713;-33.888;151.150;2023-04-10T03:00:37;0.65;;;0.25;;
44046;SDS011;29713;-33.888;151.150;2023-04-10T03:03:05;0.73;;;0.20;;
44046;SDS011;29713;-33.888;151.150;2023-04-10T03:05:35;0.85;;;0.30;;
44046;SDS011;29713;-33.888;151.150;2023-04-10T03:08:03;0.47;;;0.30;;
44046;SDS011;29713;-33.888;151.150;2023-04-10T03:10:30;1.08;;;0.47;;
44046;SDS011;29713;-33.888;151.150;2023-04-10T03:12:57;1.40;;;0.40;;
44046;SDS011;29713;-33.888;151.150;2023-04-10T03:15:25;1.27;;;0.45;;
44046;SDS011;29713;-33.888;151.150;2023-04-10T03:17:52;0.90;;;0.30;;
44046;SDS011;29713;-33.888;151.150;2023-04-10T03:20:21;0.68;;;0.32;;
44046;SDS011;29713;-33.888;151.150;2023-04-10T03:22:48;0.70;;;0.25;;
44046;SDS011;29713;-33.888;151.150;2023-04-10T03:25:16;1.08;;;0.43;;
44046;SDS011;29713;-33.888;151.150;2023-04-10T03:27:43;0.60;;;0.30;;
44046;SDS011;29713;-33.888;151.150;2023-04-10T03:30:10;1.23;;;0.28;;
44046;SDS011;29713;-33.888;151.150;2023-04-10T03:32:38;1.23;;;0.22;;
44046;SDS011;29713;-33.888;151.150;2023-04-10T03:35:08;0.32;;;0.30;;
44046;SDS011;29713;-33.888;151.150;2023-04-10T03:37:35;1.48;;;0.40;;
44046;SDS011;29713;-33.888;151.150;2023-04-10T03:40:06;1.27;;;0.43;;
44046;SDS011;29713;-33.888;151.150;2023-04-10T03:42:35;1.65;;;0.40;;
44046;SDS011;29713;-33.888;151.150;2023-04-10T03:45:02;1.60;;;0.50;;
44046;SDS011;29713;-33.888;151.150;2023-04-10T03:47:31;1.52;;;0.50;;
44046;SDS011;29713;-33.888;151.150;2023-04-10T03:49:59;0.95;;;0.30;;
44046;SDS011;29713;-33.888;151.150;2023-04-10T03:52:27;1.20;;;0.30;;
44046;SDS011;29713;-33.888;151.150;2023-04-10T03:54:55;0.85;;;0.25;;
44046;SDS011;29713;-33.888;151.150;2023-04-10T03:57:22;1.20;;;0.55;;
44046;SDS011;29713;-33.888;151.150;2023-04-10T03:59:49;1.90;;;0.82;;
44046;SDS011;29713;-33.888;151.150;2023-04-10T04:02:17;1.58;;;0.63;;
44046;SDS011;29713;-33.888;151.150;2023-04-10T04:04:44;2.60;;;0.43;;
44046;SDS011;29713;-33.888;151.150;2023-04-10T04:07:14;4.65;;;1.00;;
44046;SDS011;29713;-33.888;151.150;2023-04-10T04:09:42;1.30;;;0.57;;
44046;SDS011;29713;-33.888;151.150;2023-04-10T04:12:10;2.03;;;0.90;;
44046;SDS011;29713;-33.888;151.150;2023-04-10T04:14:37;2.33;;;0.70;;
44046;SDS011;29713;-33.888;151.150;2023-04-10T04:17:08;7.18;;;0.77;;
44046;SDS011;29713;-33.888;151.150;2023-04-10T04:19:36;4.13;;;0.80;;
44046;SDS011;29713;-33.888;151.150;2023-04-10T04:22:06;3.55;;;0.80;;
44046;SDS011;29713;-33.888;151.150;2023-04-10T04:24:33;1.92;;;0.70;;
44046;SDS011;29713;-33.888;151.150;2023-04-10T04:27:03;2.67;;;0.63;;
44046;SDS011;29713;-33.888;151.150;2023-04-10T04:29:31;2.72;;;0.82;;
44046;SDS011;29713;-33.888;151.150;2023-04-10T04:31:58;1.40;;;0.80;;
44046;SDS011;29713;-33.888;151.150;2023-04-10T04:34:25;2.40;;;0.60;;
44046;SDS011;29713;-33.888;151.150;2023-04-10T04:36:53;1.05;;;0.50;;
44046;SDS011;29713;-33.888;151.150;2023-04-10T04:39:20;4.53;;;0.93;;
44046;SDS011;29713;-33.888;151.150;2023-04-10T04:41:50;2.72;;;0.88;;
44046;SDS011;29713;-33.888;151.150;2023-04-10T04:44:17;2.42;;;0.77;;
44046;SDS011;29713;-33.888;151.150;2023-04-10T04:46:45;2.42;;;1.02;;
44046;SDS011;29713;-33.888;151.150;2023-04-10T04:49:12;3.28;;;0.98;;
44046;SDS011;29713;-33.888;151.150;2023-04-10T04:51:40;1.35;;;0.77;;
44046;SDS011;29713;-33.888;151.150;2023-04-10T04:54:07;2.28;;;0.70;;
44046;SDS011;29713;-33.888;151.150;2023-04-10T04:56:36;1.08;;;0.57;;
44046;SDS011;29713;-33.888;151.150;2023-04-10T04:59:03;4.22;;;0.70;;
44046;SDS011;29713;-33.888;151.150;2023-04-10T05:01:30;2.17;;;0.80;;
44046;SDS011;29713;-33.888;151.150;2023-04-10T05:03:58;1.80;;;0.70;;
44046;SDS011;29713;-33.888;151.150;2023-04-10T05:06:25;2.15;;;0.90;;
44046;SDS011;29713;-33.888;151.150;2023-04-10T05:08:53;3.22;;;0.70;;
44046;SDS011;29713;-33.888;151.150;2023-04-10T05:11:20;4.13;;;0.82;;
44046;SDS011;29713;-33.888;151.150;2023-04-10T05:13:47;1.17;;;0.45;;
44046;SDS011;29713;-33.888;151.150;2023-04-10T05:16:15;2.00;;;0.68;;
44046;SDS011;29713;-33.888;151.150;2023-04-10T05:18:42;2.30;;;0.57;;
44046;SDS011;29713;-33.888;151.150;2023-04-10T05:21:11;3.20;;;0.80;;
44046;SDS011;29713;-33.888;151.150;2023-04-10T05:23:39;2.08;;;0.75;;
44046;SDS011;29713;-33.888;151.150;2023-04-10T05:26:06;3.90;;;1.30;;
44046;SDS011;29713;-33.888;151.150;2023-04-10T05:28:33;2.47;;;0.77;;
44046;SDS011;29713;-33.888;151.150;2023-04-10T05:31:01;1.90;;;0.57;;
44046;SDS011;29713;-33.888;151.150;2023-04-10T05:33:28;2.28;;;0.60;;
44046;SDS011;29713;-33.888;151.150;2023-04-10T05:35:55;1.25;;;0.60;;
44046;SDS011;29713;-33.888;151.150;2023-04-10T05:38:22;1.58;;;0.75;;
44046;SDS011;29713;-33.888;151.150;2023-04-10T05:40:53;5.07;;;0.65;;
44046;SDS011;29713;-33.888;151.150;2023-04-10T05:43:20;1.20;;;0.47;;
44046;SDS011;29713;-33.888;151.150;2023-04-10T05:45:48;1.13;;;0.47;;
44046;SDS011;29713;-33.888;151.150;2023-04-10T05:48:15;1.63;;;0.45;;
44046;SDS011;29713;-33.888;151.150;2023-04-10T05:50:43;3.35;;;0.70;;
44046;SDS011;29713;-33.888;151.150;2023-04-10T05:53:12;1.50;;;0.43;;
44046;SDS011;29713;-33.888;151.150;2023-04-10T05:55:39;1.75;;;0.73;;
44046;SDS011;29713;-33.888;151.150;2023-04-10T05:58:07;1.95;;;1.00;;
44046;SDS011;29713;-33.888;151.150;2023-04-10T06:00:34;3.92;;;0.80;;
44046;SDS011;29713;-33.888;151.150;2023-04-10T06:03:02;2.28;;;0.57;;
44046;SDS011;29713;-33.888;151.150;2023-04-10T06:05:30;1.42;;;0.50;;
44046;SDS011;29713;-33.888;151.150;2023-04-10T06:07:57;2.28;;;0.45;;
44046;SDS011;29713;-33.888;151.150;2023-04-10T06:10:27;3.88;;;0.80;;
44046;SDS011;29713;-33.888;151.150;2023-04-10T06:12:57;3.88;;;0.70;;
44046;SDS011;29713;-33.888;151.150;2023-04-10T06:15:25;3.13;;;0.50;;
44046;SDS011;29713;-33.888;151.150;2023-04-10T06:17:52;1.17;;;0.40;;
44046;SDS011;29713;-33.888;151.150;2023-04-10T06:20:20;2.40;;;0.65;;
44046;SDS011;29713;-33.888;151.150;2023-04-10T06:22:47;0.77;;;0.40;;
44046;SDS011;29713;-33.888;151.150;2023-04-10T06:25:15;1.52;;;0.50;;
44046;SDS011;29713;-33.888;151.150;2023-04-10T06:27:42;3.08;;;0.50;;
44046;SDS011;29713;-33.888;151.150;2023-04-10T06:30:09;2.08;;;0.50;;
44046;SDS011;29713;-33.888;151.150;2023-04-10T06:32:37;3.33;;;0.70;;
44046;SDS011;29713;-33.888;151.150;2023-04-10T06:35:04;1.10;;;0.50;;
44046;SDS011;29713;-33.888;151.150;2023-04-10T06:37:32;2.75;;;0.90;;
44046;SDS011;29713;-33.888;151.150;2023-04-10T06:40:17;3.35;;;0.82;;
44046;SDS011;29713;-33.888;151.150;2023-04-10T06:42:44;2.95;;;0.60;;
44046;SDS011;29713;-33.888;151.150;2023-04-10T06:45:12;3.25;;;0.60;;
44046;SDS011;29713;-33.888;151.150;2023-04-10T06:47:39;3.80;;;0.73;;
44046;SDS011;29713;-33.888;151.150;2023-04-10T06:50:06;1.85;;;0.68;;
44046;SDS011;29713;-33.888;151.150;2023-04-10T06:52:34;1.13;;;0.60;;
44046;SDS011;29713;-33.888;151.150;2023-04-10T06:55:01;3.22;;;0.73;;
44046;SDS011;29713;-33.888;151.150;2023-04-10T06:57:29;9.55;;;0.80;;
44046;SDS011;29713;-33.888;151.150;2023-04-10T06:59:56;1.20;;;0.52;;
44046;SDS011;29713;-33.888;151.150;2023-04-10T07:02:23;5.28;;;0.73;;
44046;SDS011;29713;-33.888;151.150;2023-04-10T07:04:51;2.20;;;0.80;;
44046;SDS011;29713;-33.888;151.150;2023-04-10T07:07:18;3.60;;;0.77;;
44046;SDS011;29713;-33.888;151.150;2023-04-10T07:09:45;2.40;;;0.70;;
44046;SDS011;29713;-33.888;151.150;2023-04-10T07:12:13;3.05;;;0.90;;
44046;SDS011;29713;-33.888;151.150;2023-04-10T07:14:41;3.45;;;1.10;;
44046;SDS011;29713;-33.888;151.150;2023-04-10T07:17:08;3.28;;;0.60;;
44046;SDS011;29713;-33.888;151.150;2023-04-10T07:19:35;4.10;;;0.80;;
44046;SDS011;29713;-33.888;151.150;2023-04-10T07:22:03;4.07;;;0.80;;
44046;SDS011;29713;-33.888;151.150;2023-04-10T07:24:30;5.72;;;1.08;;
44046;SDS011;29713;-33.888;151.150;2023-04-10T07:26:57;5.38;;;1.17;;
44046;SDS011;29713;-33.888;151.150;2023-04-10T07:29:26;3.85;;;1.15;;
44046;SDS011;29713;-33.888;151.150;2023-04-10T07:31:53;4.50;;;1.45;;
44046;SDS011;29713;-33.888;151.150;2023-04-10T07:34:21;2.00;;;1.08;;
44046;SDS011;29713;-33.888;151.150;2023-04-10T07:36:48;5.32;;;1.00;;
44046;SDS011;29713;-33.888;151.150;2023-04-10T07:39:15;4.78;;;1.13;;
44046;SDS011;29713;-33.888;151.150;2023-04-10T07:41:43;5.70;;;1.35;;
44046;SDS011;29713;-33.888;151.150;2023-04-10T07:44:10;4.43;;;1.17;;
44046;SDS011;29713;-33.888;151.150;2023-04-10T07:46:39;4.68;;;1.30;;
44046;SDS011;29713;-33.888;151.150;2023-04-10T07:49:06;2.42;;;1.00;;
44046;SDS011;29713;-33.888;151.150;2023-04-10T07:51:33;3.55;;;1.30;;
44046;SDS011;29713;-33.888;151.150;2023-04-10T07:54:01;3.80;;;1.08;;
44046;SDS011;29713;-33.888;151.150;2023-04-10T07:56:29;5.18;;;1.25;;
44046;SDS011;29713;-33.888;151.150;2023-04-10T07:59:00;3.22;;;1.00;;
44046;SDS011;29713;-33.888;151.150;2023-04-10T08:01:27;1.75;;;1.08;;
44046;SDS011;29713;-33.888;151.150;2023-04-10T08:03:55;2.63;;;1.10;;
44046;SDS011;29713;-33.888;151.150;2023-04-10T08:06:22;14.82;;;4.40;;
44046;SDS011;29713;-33.888;151.150;2023-04-10T08:08:50;3.30;;;1.63;;
44046;SDS011;29713;-33.888;151.150;2023-04-10T08:14:01;7.15;;;1.92;;
44046;SDS011;29713;-33.888;151.150;2023-04-10T08:16:31;3.83;;;1.30;;
44046;SDS011;29713;-33.888;151.150;2023-04-10T08:19:00;8.40;;;3.15;;
44046;SDS011;29713;-33.888;151.150;2023-04-10T08:21:28;7.15;;;1.90;;
44046;SDS011;29713;-33.888;151.150;2023-04-10T08:23:57;3.67;;;1.60;;
44046;SDS011;29713;-33.888;151.150;2023-04-10T08:26:26;4.72;;;1.73;;
44046;SDS011;29713;-33.888;151.150;2023-04-10T08:28:54;7.13;;;1.75;;
44046;SDS011;29713;-33.888;151.150;2023-04-10T08:31:23;7.65;;;2.03;;
44046;SDS011;29713;-33.888;151.150;2023-04-10T08:33:51;4.35;;;1.63;;
44046;SDS011;29713;-33.888;151.150;2023-04-10T08:36:19;6.53;;;2.00;;
44046;SDS011;29713;-33.888;151.150;2023-04-10T08:38:46;4.28;;;1.70;;
44046;SDS011;29713;-33.888;151.150;2023-04-10T08:41:14;3.58;;;1.85;;
44046;SDS011;29713;-33.888;151.150;2023-04-10T08:43:43;3.13;;;1.70;;
44046;SDS011;29713;-33.888;151.150;2023-04-10T08:46:11;4.10;;;1.85;;
44046;SDS011;29713;-33.888;151.150;2023-04-10T08:49:00;7.30;;;2.50;;
44046;SDS011;29713;-33.888;151.150;2023-04-10T08:51:38;7.03;;;3.75;;
44046;SDS011;29713;-33.888;151.150;2023-04-10T08:54:25;9.20;;;3.70;;
44046;SDS011;29713;-33.888;151.150;2023-04-10T08:56:54;8.10;;;3.95;;
44046;SDS011;29713;-33.888;151.150;2023-04-10T08:59:23;11.23;;;4.78;;
44046;SDS011;29713;-33.888;151.150;2023-04-10T09:01:50;10.20;;;5.43;;
44046;SDS011;29713;-33.888;151.150;2023-04-10T09:04:18;9.02;;;4.65;;
44046;SDS011;29713;-33.888;151.150;2023-04-10T09:06:45;13.10;;;5.80;;
44046;SDS011;29713;-33.888;151.150;2023-04-10T09:09:13;10.50;;;5.85;;
44046;SDS011;29713;-33.888;151.150;2023-04-10T09:11:58;8.43;;;4.60;;
44046;SDS011;29713;-33.888;151.150;2023-04-10T09:14:32;9.27;;;4.22;;
44046;SDS011;29713;-33.888;151.150;2023-04-10T09:17:10;18.80;;;10.23;;
44046;SDS011;29713;-33.888;151.150;2023-04-10T09:19:41;41.33;;;19.60;;
44046;SDS011;29713;-33.888;151.150;2023-04-10T09:22:09;15.05;;;7.38;;
44046;SDS011;29713;-33.888;151.150;2023-04-10T09:24:38;23.70;;;10.00;;
44046;SDS011;29713;-33.888;151.150;2023-04-10T09:27:06;13.02;;;8.07;;
44046;SDS011;29713;-33.888;151.150;2023-04-10T09:29:44;9.57;;;4.43;;
44046;SDS011;29713;-33.888;151.150;2023-04-10T09:35:15;19.25;;;8.32;;
44046;SDS011;29713;-33.888;151.150;2023-04-10T09:37:43;12.75;;;5.68;;
44046;SDS011;29713;-33.888;151.150;2023-04-10T09:40:21;9.27;;;4.30;;
44046;SDS011;29713;-33.888;151.150;2023-04-10T09:42:50;7.88;;;4.50;;
44046;SDS011;29713;-33.888;151.150;2023-04-10T09:45:18;4.78;;;2.40;;
44046;SDS011;29713;-33.888;151.150;2023-04-10T09:48:05;8.60;;;2.28;;
44046;SDS011;29713;-33.888;151.150;2023-04-10T09:50:36;3.70;;;1.75;;
44046;SDS011;29713;-33.888;151.150;2023-04-10T09:53:11;7.43;;;2.25;;
44046;SDS011;29713;-33.888;151.150;2023-04-10T09:55:40;3.13;;;1.38;;
44046;SDS011;29713;-33.888;151.150;2023-04-10T09:58:09;1.98;;;1.17;;
44046;SDS011;29713;-33.888;151.150;2023-04-10T10:00:40;3.40;;;1.15;;
44046;SDS011;29713;-33.888;151.150;2023-04-10T10:03:10;2.00;;;1.20;;
44046;SDS011;29713;-33.888;151.150;2023-04-10T10:05:40;2.75;;;1.10;;
44046;SDS011;29713;-33.888;151.150;2023-04-10T10:08:09;3.05;;;0.93;;
44046;SDS011;29713;-33.888;151.150;2023-04-10T10:10:48;2.55;;;1.10;;
44046;SDS011;29713;-33.888;151.150;2023-04-10T10:13:39;3.22;;;1.02;;
44046;SDS011;29713;-33.888;151.150;2023-04-10T10:16:14;2.53;;;0.70;;
44046;SDS011;29713;-33.888;151.150;2023-04-10T10:19:30;4.20;;;0.80;;
44046;SDS011;29713;-33.888;151.150;2023-04-10T10:22:10;1.55;;;0.88;;
44046;SDS011;29713;-33.888;151.150;2023-04-10T10:24:39;2.80;;;1.08;;
44046;SDS011;29713;-33.888;151.150;2023-04-10T10:27:12;1.33;;;0.70;;
44046;SDS011;29713;-33.888;151.150;2023-04-10T10:29:41;1.40;;;0.82;;
44046;SDS011;29713;-33.888;151.150;2023-04-10T10:32:12;1.60;;;0.80;;
44046;SDS011;29713;-33.888;151.150;2023-04-10T10:34:41;2.20;;;0.70;;
44046;SDS011;29713;-33.888;151.150;2023-04-10T10:37:13;1.95;;;0.73;;
44046;SDS011;29713;-33.888;151.150;2023-04-10T10:45:12;2.45;;;0.77;;
44046;SDS011;29713;-33.888;151.150;2023-04-10T10:47:46;1.55;;;0.50;;
44046;SDS011;29713;-33.888;151.150;2023-04-10T10:50:16;1.90;;;0.82;;
44046;SDS011;29713;-33.888;151.150;2023-04-10T10:52:47;2.53;;;1.08;;
44046;SDS011;29713;-33.888;151.150;2023-04-10T10:55:27;1.80;;;0.77;;
44046;SDS011;29713;-33.888;151.150;2023-04-10T10:58:01;2.35;;;0.55;;
44046;SDS011;29713;-33.888;151.150;2023-04-10T11:05:56;1.15;;;0.60;;
44046;SDS011;29713;-33.888;151.150;2023-04-10T11:08:46;1.08;;;0.60;;
44046;SDS011;29713;-33.888;151.150;2023-04-10T11:11:19;1.30;;;0.60;;
44046;SDS011;29713;-33.888;151.150;2023-04-10T11:16:39;2.67;;;0.80;;
44046;SDS011;29713;-33.888;151.150;2023-04-10T11:19:11;1.95;;;0.77;;
44046;SDS011;29713;-33.888;151.150;2023-04-10T11:30:29;2.50;;;0.70;;
44046;SDS011;29713;-33.888;151.150;2023-04-10T11:32:58;1.63;;;0.60;;
44046;SDS011;29713;-33.888;151.150;2023-04-10T11:35:30;3.07;;;0.70;;
44046;SDS011;29713;-33.888;151.150;2023-04-10T11:38:10;1.92;;;0.80;;
44046;SDS011;29713;-33.888;151.150;2023-04-10T11:40:52;0.70;;;0.70;;
44046;SDS011;29713;-33.888;151.150;2023-04-10T11:43:27;1.67;;;1.08;;
44046;SDS011;29713;-33.888;151.150;2023-04-10T11:46:04;1.90;;;0.70;;
44046;SDS011;29713;-33.888;151.150;2023-04-10T11:48:32;2.88;;;0.80;;
44046;SDS011;29713;-33.888;151.150;2023-04-10T11:51:10;2.53;;;0.98;;
44046;SDS011;29713;-33.888;151.150;2023-04-10T11:53:39;0.88;;;0.60;;
44046;SDS011;29713;-33.888;151.150;2023-04-10T11:56:16;4.95;;;0.85;;
44046;SDS011;29713;-33.888;151.150;2023-04-10T11:58:49;1.67;;;0.73;;
44046;SDS011;29713;-33.888;151.150;2023-04-10T12:01:19;0.95;;;0.50;;
44046;SDS011;29713;-33.888;151.150;2023-04-10T12:03:47;1.42;;;0.68;;
44046;SDS011;29713;-33.888;151.150;2023-04-10T12:06:15;2.53;;;1.00;;
44046;SDS011;29713;-33.888;151.150;2023-04-10T12:08:46;2.30;;;0.88;;
44046;SDS011;29713;-33.888;151.150;2023-04-10T12:11:24;1.88;;;1.10;;
44046;SDS011;29713;-33.888;151.150;2023-04-10T12:13:54;2.25;;;0.73;;
44046;SDS011;29713;-33.888;151.150;2023-04-10T12:16:23;5.30;;;0.90;;
44046;SDS011;29713;-33.888;151.150;2023-04-10T12:18:53;2.25;;;0.80;;
44046;SDS011;29713;-33.888;151.150;2023-04-10T12:21:21;0.75;;;0.75;;
44046;SDS011;29713;-33.888;151.150;2023-04-10T12:23:48;1.27;;;0.75;;
44046;SDS011;29713;-33.888;151.150;2023-04-10T12:26:17;2.50;;;0.77;;
44046;SDS011;29713;-33.888;151.150;2023-04-10T12:28:51;1.23;;;0.73;;
44046;SDS011;29713;-33.888;151.150;2023-04-10T12:31:29;1.38;;;0.70;;
44046;SDS011;29713;-33.888;151.150;2023-04-10T12:34:03;4.15;;;1.00;;
44046;SDS011;29713;-33.888;151.150;2023-04-10T12:36:31;3.83;;;0.68;;
44046;SDS011;29713;-33.888;151.150;2023-04-10T12:39:00;1.27;;;0.65;;
44046;SDS011;29713;-33.888;151.150;2023-04-10T12:41:30;1.50;;;0.80;;
44046;SDS011;29713;-33.888;151.150;2023-04-10T12:44:11;1.27;;;0.70;;
44046;SDS011;29713;-33.888;151.150;2023-04-10T12:46:39;4.78;;;0.90;;
44046;SDS011;29713;-33.888;151.150;2023-04-10T12:49:12;1.10;;;0.77;;
44046;SDS011;29713;-33.888;151.150;2023-04-10T12:51:44;1.23;;;0.82;;
44046;SDS011;29713;-33.888;151.150;2023-04-10T12:54:29;2.60;;;1.40;;
44046;SDS011;29713;-33.888;151.150;2023-04-10T12:57:00;2.13;;;1.10;;
44046;SDS011;29713;-33.888;151.150;2023-04-10T12:59:29;1.33;;;0.90;;
44046;SDS011;29713;-33.888;151.150;2023-04-10T13:01:56;2.27;;;0.97;;
44046;SDS011;29713;-33.888;151.150;2023-04-10T13:04:23;3.63;;;1.10;;
44046;SDS011;29713;-33.888;151.150;2023-04-10T13:06:51;3.70;;;1.00;;
44046;SDS011;29713;-33.888;151.150;2023-04-10T13:09:18;2.53;;;0.83;;
44046;SDS011;29713;-33.888;151.150;2023-04-10T13:11:46;2.00;;;0.90;;
44046;SDS011;29713;-33.888;151.150;2023-04-10T13:14:14;2.63;;;1.37;;
44046;SDS011;29713;-33.888;151.150;2023-04-10T13:16:41;2.80;;;1.10;;
44046;SDS011;29713;-33.888;151.150;2023-04-10T13:19:08;2.87;;;1.10;;
44046;SDS011;29713;-33.888;151.150;2023-04-10T13:21:37;1.60;;;0.88;;
44046;SDS011;29713;-33.888;151.150;2023-04-10T13:24:04;3.00;;;1.20;;
44046;SDS011;29713;-33.888;151.150;2023-04-10T13:26:32;2.50;;;0.90;;
44046;SDS011;29713;-33.888;151.150;2023-04-10T13:28:59;2.47;;;0.80;;
44046;SDS011;29713;-33.888;151.150;2023-04-10T13:31:26;1.60;;;1.00;;
44046;SDS011;29713;-33.888;151.150;2023-04-10T13:33:53;1.73;;;1.10;;
44046;SDS011;29713;-33.888;151.150;2023-04-10T13:36:21;2.83;;;1.10;;
44046;SDS011;29713;-33.888;151.150;2023-04-10T13:38:48;3.07;;;1.20;;
44046;SDS011;29713;-33.888;151.150;2023-04-10T13:41:15;1.77;;;0.93;;
44046;SDS011;29713;-33.888;151.150;2023-04-10T13:43:43;1.93;;;0.80;;
44046;SDS011;29713;-33.888;151.150;2023-04-10T13:46:10;1.70;;;1.10;;
44046;SDS011;29713;-33.888;151.150;2023-04-10T13:48:37;3.07;;;0.97;;
44046;SDS011;29713;-33.888;151.150;2023-04-10T13:51:08;2.60;;;1.50;;
44046;SDS011;29713;-33.888;151.150;2023-04-10T13:53:36;2.30;;;1.20;;
44046;SDS011;29713;-33.888;151.150;2023-04-10T13:56:03;1.53;;;0.90;;
44046;SDS011;29713;-33.888;151.150;2023-04-10T13:58:31;4.30;;;1.33;;
44046;SDS011;29713;-33.888;151.150;2023-04-10T14:00:59;1.80;;;1.10;;
44046;SDS011;29713;-33.888;151.150;2023-04-10T14:03:26;2.20;;;0.80;;
44046;SDS011;29713;-33.888;151.150;2023-04-10T14:05:54;3.10;;;0.90;;
44046;SDS011;29713;-33.888;151.150;2023-04-10T14:08:21;1.70;;;1.00;;
44046;SDS011;29713;-33.888;151.150;2023-04-10T14:10:48;3.47;;;1.20;;
44046;SDS011;29713;-33.888;151.150;2023-04-10T14:13:16;3.03;;;1.07;;
44046;SDS011;29713;-33.888;151.150;2023-04-10T14:15:44;2.40;;;1.10;;
44046;SDS011;29713;-33.888;151.150;2023-04-10T14:18:11;2.00;;;1.00;;
44046;SDS011;29713;-33.888;151.150;2023-04-10T14:20:43;3.80;;;1.07;;
44046;SDS011;29713;-33.888;151.150;2023-04-10T14:23:10;2.50;;;1.33;;
44046;SDS011;29713;-33.888;151.150;2023-04-10T14:25:45;4.10;;;1.43;;
44046;SDS011;29713;-33.888;151.150;2023-04-10T14:28:15;3.60;;;1.07;;
44046;SDS011;29713;-33.888;151.150;2023-04-10T14:30:45;3.10;;;1.20;;
44046;SDS011;29713;-33.888;151.150;2023-04-10T14:33:14;3.13;;;0.93;;
44046;SDS011;29713;-33.888;151.150;2023-04-10T14:35:45;1.27;;;0.90;;
44046;SDS011;29713;-33.888;151.150;2023-04-10T14:38:12;1.20;;;0.90;;
44046;SDS011;29713;-33.888;151.150;2023-04-10T14:40:43;3.73;;;1.30;;
44046;SDS011;29713;-33.888;151.150;2023-04-10T14:43:13;1.90;;;1.10;;
44046;SDS011;29713;-33.888;151.150;2023-04-10T14:45:40;2.70;;;1.00;;
44046;SDS011;29713;-33.888;151.150;2023-04-10T14:48:08;3.03;;;1.03;;
44046;SDS011;29713;-33.888;151.150;2023-04-10T14:50:37;3.43;;;1.13;;
44046;SDS011;29713;-33.888;151.150;2023-04-10T14:53:04;1.07;;;0.80;;
44046;SDS011;29713;-33.888;151.150;2023-04-10T14:55:34;2.07;;;0.87;;
44046;SDS011;29713;-33.888;151.150;2023-04-10T14:58:01;2.00;;;1.00;;
44046;SDS011;29713;-33.888;151.150;2023-04-10T15:00:31;1.80;;;1.10;;
44046;SDS011;29713;-33.888;151.150;2023-04-10T15:02:58;1.33;;;0.77;;
44046;SDS011;29713;-33.888;151.150;2023-04-10T15:05:26;1.37;;;0.80;;
44046;SDS011;29713;-33.888;151.150;2023-04-10T15:07:54;2.93;;;1.00;;
44046;SDS011;29713;-33.888;151.150;2023-04-10T15:10:21;2.10;;;1.20;;